sensor_id;sensor_type;location;lat;lon;timestamp;P1;durP1;ratioP1;P2;durP2;ratioP2
66559;SDS011;53413;49.878;8.142;2023-04-26T00:00:36;8.13;;;3.10;;
66559;SDS011;53413;49.878;8.142;2023-04-26T00:03:01;8.07;;;3.43;;
66559;SDS011;53413;49.878;8.142;2023-04-26T00:05:27;8.88;;;3.30;;
66559;SDS011;53413;49.878;8.142;2023-04-26T00:07:53;8.73;;;3.00;;
66559;SDS011;53413;49.878;8.142;2023-04-26T00:10:18;7.72;;;3.05;;
66559;SDS011;53413;49.878;8.142;2023-04-26T00:12:44;14.53;;;4.50;;
66559;SDS011;53413;49.878;8.142;2023-04-26T00:15:09;8.57;;;3.20;;
66559;SDS011;53413;49.878;8.142;2023-04-26T00:17:35;9.45;;;3.20;;
66559;SDS011;53413;49.878;8.142;2023-04-26T00:20:00;9.43;;;3.13;;
66559;SDS011;53413;49.878;8.142;2023-04-26T00:22:26;8.63;;;3.40;;
66559;SDS011;53413;49.878;8.142;2023-04-26T00:24:51;8.13;;;2.83;;
66559;SDS011;53413;49.878;8.142;2023-04-26T00:27:17;7.33;;;3.07;;
66559;SDS011;53413;49.878;8.142;2023-04-26T00:29:42;8.27;;;3.20;;
66559;SDS011;53413;49.878;8.142;2023-04-26T00:32:07;9.50;;;3.20;;
66559;SDS011;53413;49.878;8.142;2023-04-26T00:34:36;7.63;;;3.27;;
66559;SDS011;53413;49.878;8.142;2023-04-26T00:37:02;8.90;;;3.17;;
66559;SDS011;53413;49.878;8.142;2023-04-26T00:39:29;8.77;;;3.00;;
66559;SDS011;53413;49.878;8.142;2023-04-26T00:41:55;8.52;;;3.28;;
66559;SDS011;53413;49.878;8.142;2023-04-26T00:44:20;9.50;;;3.13;;
66559;SDS011;53413;49.878;8.142;2023-04-26T00:46:46;7.38;;;3.03;;
66559;SDS011;53413;49.878;8.142;2023-04-26T00:49:14;8.97;;;3.33;;
66559;SDS011;53413;49.878;8.142;2023-04-26T00:51:43;8.50;;;3.00;;
66559;SDS011;53413;49.878;8.142;2023-04-26T00:54:11;10.35;;;3.17;;
66559;SDS011;53413;49.878;8.142;2023-04-26T00:56:37;10.63;;;3.55;;
66559;SDS011;53413;49.878;8.142;2023-04-26T00:59:06;9.82;;;3.45;;
66559;SDS011;53413;49.878;8.142;2023-04-26T01:01:31;8.77;;;3.47;;
66559;SDS011;53413;49.878;8.142;2023-04-26T01:03:57;10.98;;;3.30;;
66559;SDS011;53413;49.878;8.142;2023-04-26T01:06:22;9.37;;;3.50;;
66559;SDS011;53413;49.878;8.142;2023-04-26T01:08:51;9.50;;;3.43;;
66559;SDS011;53413;49.878;8.142;2023-04-26T01:11:18;9.25;;;3.28;;
66559;SDS011;53413;49.878;8.142;2023-04-26T01:13:46;8.40;;;3.22;;
66559;SDS011;53413;49.878;8.142;2023-04-26T01:16:12;8.02;;;3.60;;
66559;SDS011;53413;49.878;8.142;2023-04-26T01:18:39;10.10;;;3.53;;
66559;SDS011;53413;49.878;8.142;2023-04-26T01:21:05;11.18;;;3.50;;
66559;SDS011;53413;49.878;8.142;2023-04-26T01:23:30;8.73;;;3.83;;
66559;SDS011;53413;49.878;8.142;2023-04-26T01:25:56;10.82;;;3.50;;
66559;SDS011;53413;49.878;8.142;2023-04-26T01:28:21;12.23;;;3.70;;
66559;SDS011;53413;49.878;8.142;2023-04-26T01:30:47;8.57;;;3.70;;
66559;SDS011;53413;49.878;8.142;2023-04-26T01:33:12;11.52;;;3.80;;
66559;SDS011;53413;49.878;8.142;2023-04-26T01:35:39;10.57;;;3.80;;
66559;SDS011;53413;49.878;8.142;2023-04-26T01:38:05;9.00;;;3.50;;
66559;SDS011;53413;49.878;8.142;2023-04-26T01:40:30;11.40;;;3.70;;
66559;SDS011;53413;49.878;8.142;2023-04-26T01:42:56;10.67;;;3.93;;
66559;SDS011;53413;49.878;8.142;2023-04-26T01:45:21;12.13;;;3.80;;
66559;SDS011;53413;49.878;8.142;2023-04-26T01:47:46;11.83;;;3.37;;
66559;SDS011;53413;49.878;8.142;2023-04-26T01:50:12;10.25;;;3.58;;
66559;SDS011;53413;49.878;8.142;2023-04-26T01:52:37;10.80;;;3.77;;
66559;SDS011;53413;49.878;8.142;2023-04-26T01:55:02;9.97;;;3.60;;
66559;SDS011;53413;49.878;8.142;2023-04-26T01:57:28;10.27;;;3.60;;
66559;SDS011;53413;49.878;8.142;2023-04-26T01:59:53;9.53;;;4.20;;
66559;SDS011;53413;49.878;8.142;2023-04-26T02:02:20;13.00;;;3.78;;
66559;SDS011;53413;49.878;8.142;2023-04-26T02:04:46;8.23;;;3.70;;
66559;SDS011;53413;49.878;8.142;2023-04-26T02:07:11;9.93;;;3.90;;
66559;SDS011;53413;49.878;8.142;2023-04-26T02:09:36;11.32;;;3.70;;
66559;SDS011;53413;49.878;8.142;2023-04-26T02:12:02;9.10;;;3.42;;
66559;SDS011;53413;49.878;8.142;2023-04-26T02:14:27;11.13;;;4.00;;
66559;SDS011;53413;49.878;8.142;2023-04-26T02:16:52;10.50;;;3.60;;
66559;SDS011;53413;49.878;8.142;2023-04-26T02:19:18;10.37;;;3.43;;
66559;SDS011;53413;49.878;8.142;2023-04-26T02:21:56;11.27;;;3.73;;
66559;SDS011;53413;49.878;8.142;2023-04-26T02:24:22;14.30;;;3.97;;
66559;SDS011;53413;49.878;8.142;2023-04-26T02:26:50;10.18;;;3.92;;
66559;SDS011;53413;49.878;8.142;2023-04-26T02:29:19;11.07;;;3.90;;
66559;SDS011;53413;49.878;8.142;2023-04-26T02:31:44;11.02;;;4.43;;
66559;SDS011;53413;49.878;8.142;2023-04-26T02:34:10;12.10;;;3.80;;
66559;SDS011;53413;49.878;8.142;2023-04-26T02:36:36;11.43;;;4.05;;
66559;SDS011;53413;49.878;8.142;2023-04-26T02:39:01;10.27;;;3.77;;
66559;SDS011;53413;49.878;8.142;2023-04-26T02:41:27;12.32;;;5.03;;
66559;SDS011;53413;49.878;8.142;2023-04-26T02:43:55;13.17;;;4.30;;
66559;SDS011;53413;49.878;8.142;2023-04-26T02:46:20;11.05;;;4.68;;
66559;SDS011;53413;49.878;8.142;2023-04-26T02:48:45;13.77;;;4.60;;
66559;SDS011;53413;49.878;8.142;2023-04-26T02:51:11;14.83;;;4.80;;
66559;SDS011;53413;49.878;8.142;2023-04-26T02:53:36;11.13;;;3.83;;
66559;SDS011;53413;49.878;8.142;2023-04-26T02:56:01;9.40;;;4.00;;
66559;SDS011;53413;49.878;8.142;2023-04-26T02:58:27;14.13;;;4.53;;
66559;SDS011;53413;49.878;8.142;2023-04-26T03:00:53;12.47;;;4.70;;
66559;SDS011;53413;49.878;8.142;2023-04-26T03:03:18;10.37;;;4.03;;
66559;SDS011;53413;49.878;8.142;2023-04-26T03:05:44;10.70;;;4.00;;
66559;SDS011;53413;49.878;8.142;2023-04-26T03:08:10;10.32;;;4.07;;
66559;SDS011;53413;49.878;8.142;2023-04-26T03:10:35;9.87;;;3.63;;
66559;SDS011;53413;49.878;8.142;2023-04-26T03:13:01;12.83;;;4.07;;
66559;SDS011;53413;49.878;8.142;2023-04-26T03:15:27;11.20;;;3.85;;
66559;SDS011;53413;49.878;8.142;2023-04-26T03:17:53;14.07;;;3.70;;
66559;SDS011;53413;49.878;8.142;2023-04-26T03:20:18;11.30;;;4.10;;
66559;SDS011;53413;49.878;8.142;2023-04-26T03:22:44;14.77;;;3.78;;
66559;SDS011;53413;49.878;8.142;2023-04-26T03:25:10;9.53;;;3.97;;
66559;SDS011;53413;49.878;8.142;2023-04-26T03:27:35;10.50;;;4.10;;
66559;SDS011;53413;49.878;8.142;2023-04-26T03:30:01;10.47;;;3.53;;
66559;SDS011;53413;49.878;8.142;2023-04-26T03:32:28;12.75;;;4.25;;
66559;SDS011;53413;49.878;8.142;2023-04-26T03:34:53;11.63;;;4.10;;
66559;SDS011;53413;49.878;8.142;2023-04-26T03:37:18;9.82;;;3.88;;
66559;SDS011;53413;49.878;8.142;2023-04-26T03:39:44;11.13;;;3.72;;
66559;SDS011;53413;49.878;8.142;2023-04-26T03:42:09;12.07;;;4.30;;
66559;SDS011;53413;49.878;8.142;2023-04-26T03:44:34;12.20;;;4.50;;
66559;SDS011;53413;49.878;8.142;2023-04-26T03:47:00;12.80;;;4.40;;
66559;SDS011;53413;49.878;8.142;2023-04-26T03:49:25;12.40;;;3.87;;
66559;SDS011;53413;49.878;8.142;2023-04-26T03:51:50;12.10;;;4.20;;
66559;SDS011;53413;49.878;8.142;2023-04-26T03:54:16;13.83;;;5.00;;
66559;SDS011;53413;49.878;8.142;2023-04-26T03:56:41;13.93;;;4.70;;
66559;SDS011;53413;49.878;8.142;2023-04-26T03:59:06;12.98;;;4.72;;
66559;SDS011;53413;49.878;8.142;2023-04-26T04:01:33;13.07;;;4.50;;
66559;SDS011;53413;49.878;8.142;2023-04-26T04:03:59;13.10;;;4.60;;
66559;SDS011;53413;49.878;8.142;2023-04-26T04:06:24;11.60;;;3.90;;
66559;SDS011;53413;49.878;8.142;2023-04-26T04:08:49;13.70;;;5.00;;
66559;SDS011;53413;49.878;8.142;2023-04-26T04:11:15;13.57;;;4.90;;
66559;SDS011;53413;49.878;8.142;2023-04-26T04:13:40;15.57;;;5.23;;
66559;SDS011;53413;49.878;8.142;2023-04-26T04:16:06;18.70;;;5.43;;
66559;SDS011;53413;49.878;8.142;2023-04-26T04:18:34;14.43;;;5.07;;
66559;SDS011;53413;49.878;8.142;2023-04-26T04:20:59;12.17;;;5.30;;
66559;SDS011;53413;49.878;8.142;2023-04-26T04:23:24;16.40;;;5.53;;
66559;SDS011;53413;49.878;8.142;2023-04-26T04:25:51;14.13;;;5.32;;
66559;SDS011;53413;49.878;8.142;2023-04-26T04:28:16;14.13;;;5.03;;
66559;SDS011;53413;49.878;8.142;2023-04-26T04:30:42;12.80;;;4.55;;
66559;SDS011;53413;49.878;8.142;2023-04-26T04:33:11;11.93;;;4.67;;
66559;SDS011;53413;49.878;8.142;2023-04-26T04:35:36;16.88;;;4.90;;
66559;SDS011;53413;49.878;8.142;2023-04-26T04:38:02;15.70;;;4.67;;
66559;SDS011;53413;49.878;8.142;2023-04-26T04:40:28;13.43;;;4.50;;
66559;SDS011;53413;49.878;8.142;2023-04-26T04:42:54;12.30;;;4.87;;
66559;SDS011;53413;49.878;8.142;2023-04-26T04:45:20;11.18;;;4.63;;
66559;SDS011;53413;49.878;8.142;2023-04-26T04:47:45;13.13;;;5.03;;
66559;SDS011;53413;49.878;8.142;2023-04-26T04:50:11;11.50;;;4.88;;
66559;SDS011;53413;49.878;8.142;2023-04-26T04:52:36;13.47;;;4.73;;
66559;SDS011;53413;49.878;8.142;2023-04-26T04:55:02;14.03;;;5.03;;
66559;SDS011;53413;49.878;8.142;2023-04-26T04:57:28;11.23;;;4.50;;
66559;SDS011;53413;49.878;8.142;2023-04-26T04:59:55;11.52;;;4.82;;
66559;SDS011;53413;49.878;8.142;2023-04-26T05:02:21;13.07;;;5.10;;
66559;SDS011;53413;49.878;8.142;2023-04-26T05:04:46;15.27;;;4.77;;
66559;SDS011;53413;49.878;8.142;2023-04-26T05:07:12;13.90;;;5.03;;
66559;SDS011;53413;49.878;8.142;2023-04-26T05:09:39;14.55;;;5.45;;
66559;SDS011;53413;49.878;8.142;2023-04-26T05:12:05;14.30;;;5.25;;
66559;SDS011;53413;49.878;8.142;2023-04-26T05:14:31;13.80;;;5.20;;
66559;SDS011;53413;49.878;8.142;2023-04-26T05:16:56;12.17;;;4.77;;
66559;SDS011;53413;49.878;8.142;2023-04-26T05:19:21;14.07;;;5.43;;
66559;SDS011;53413;49.878;8.142;2023-04-26T05:21:47;12.45;;;4.70;;
66559;SDS011;53413;49.878;8.142;2023-04-26T05:24:12;14.97;;;5.30;;
66559;SDS011;53413;49.878;8.142;2023-04-26T05:26:37;12.70;;;5.10;;
66559;SDS011;53413;49.878;8.142;2023-04-26T05:29:03;14.23;;;4.57;;
66559;SDS011;53413;49.878;8.142;2023-04-26T05:31:28;13.53;;;4.90;;
66559;SDS011;53413;49.878;8.142;2023-04-26T05:33:53;12.40;;;4.70;;
66559;SDS011;53413;49.878;8.142;2023-04-26T05:36:19;11.00;;;4.77;;
66559;SDS011;53413;49.878;8.142;2023-04-26T05:38:45;13.82;;;5.00;;
66559;SDS011;53413;49.878;8.142;2023-04-26T05:41:10;10.50;;;4.17;;
66559;SDS011;53413;49.878;8.142;2023-04-26T05:43:36;10.40;;;4.60;;
66559;SDS011;53413;49.878;8.142;2023-04-26T05:46:01;10.80;;;4.53;;
66559;SDS011;53413;49.878;8.142;2023-04-26T05:48:27;12.88;;;4.75;;
66559;SDS011;53413;49.878;8.142;2023-04-26T05:50:54;11.77;;;4.90;;
66559;SDS011;53413;49.878;8.142;2023-04-26T05:53:20;10.55;;;4.38;;
66559;SDS011;53413;49.878;8.142;2023-04-26T05:55:46;12.47;;;4.73;;
66559;SDS011;53413;49.878;8.142;2023-04-26T05:58:11;11.32;;;4.65;;
66559;SDS011;53413;49.878;8.142;2023-04-26T06:00:37;11.53;;;4.50;;
66559;SDS011;53413;49.878;8.142;2023-04-26T06:03:03;10.88;;;4.53;;
66559;SDS011;53413;49.878;8.142;2023-04-26T06:05:29;10.90;;;4.43;;
66559;SDS011;53413;49.878;8.142;2023-04-26T06:07:58;11.23;;;4.17;;
66559;SDS011;53413;49.878;8.142;2023-04-26T06:10:23;8.82;;;3.47;;
66559;SDS011;53413;49.878;8.142;2023-04-26T06:12:49;7.97;;;4.50;;
66559;SDS011;53413;49.878;8.142;2023-04-26T06:15:14;7.43;;;3.90;;
66559;SDS011;53413;49.878;8.142;2023-04-26T06:17:40;10.60;;;4.28;;
66559;SDS011;53413;49.878;8.142;2023-04-26T06:20:06;7.43;;;4.73;;
66559;SDS011;53413;49.878;8.142;2023-04-26T06:22:34;7.68;;;3.80;;
66559;SDS011;53413;49.878;8.142;2023-04-26T06:24:59;8.15;;;4.07;;
66559;SDS011;53413;49.878;8.142;2023-04-26T06:27:24;9.13;;;4.37;;
66559;SDS011;53413;49.878;8.142;2023-04-26T06:29:50;8.60;;;4.30;;
66559;SDS011;53413;49.878;8.142;2023-04-26T06:32:16;6.70;;;3.72;;
66559;SDS011;53413;49.878;8.142;2023-04-26T06:34:41;9.03;;;4.00;;
66559;SDS011;53413;49.878;8.142;2023-04-26T06:37:09;8.57;;;4.10;;
66559;SDS011;53413;49.878;8.142;2023-04-26T06:39:35;7.87;;;4.20;;
66559;SDS011;53413;49.878;8.142;2023-04-26T06:42:02;9.18;;;4.38;;
66559;SDS011;53413;49.878;8.142;2023-04-26T06:44:28;7.50;;;4.13;;
66559;SDS011;53413;49.878;8.142;2023-04-26T06:46:53;6.93;;;4.43;;
66559;SDS011;53413;49.878;8.142;2023-04-26T06:49:19;6.38;;;3.58;;
66559;SDS011;53413;49.878;8.142;2023-04-26T06:51:45;7.40;;;3.97;;
66559;SDS011;53413;49.878;8.142;2023-04-26T06:54:11;7.00;;;4.17;;
66559;SDS011;53413;49.878;8.142;2023-04-26T06:56:36;6.80;;;3.97;;
66559;SDS011;53413;49.878;8.142;2023-04-26T06:59:02;9.00;;;4.00;;
66559;SDS011;53413;49.878;8.142;2023-04-26T07:01:29;8.77;;;3.53;;
66559;SDS011;53413;49.878;8.142;2023-04-26T07:04:01;7.25;;;3.50;;
66559;SDS011;53413;49.878;8.142;2023-04-26T07:06:27;7.75;;;3.63;;
66559;SDS011;53413;49.878;8.142;2023-04-26T07:08:54;7.90;;;3.60;;
66559;SDS011;53413;49.878;8.142;2023-04-26T07:11:20;8.30;;;3.83;;
66559;SDS011;53413;49.878;8.142;2023-04-26T07:13:46;8.13;;;3.97;;
66559;SDS011;53413;49.878;8.142;2023-04-26T07:16:11;7.87;;;3.73;;
66559;SDS011;53413;49.878;8.142;2023-04-26T07:18:38;9.90;;;3.88;;
66559;SDS011;53413;49.878;8.142;2023-04-26T07:21:04;7.97;;;3.60;;
66559;SDS011;53413;49.878;8.142;2023-04-26T07:23:29;7.47;;;3.85;;
66559;SDS011;53413;49.878;8.142;2023-04-26T07:25:55;7.90;;;3.10;;
66559;SDS011;53413;49.878;8.142;2023-04-26T07:28:20;6.77;;;3.87;;
66559;SDS011;53413;49.878;8.142;2023-04-26T07:30:46;7.03;;;3.50;;
66559;SDS011;53413;49.878;8.142;2023-04-26T07:33:11;7.87;;;3.93;;
66559;SDS011;53413;49.878;8.142;2023-04-26T07:35:36;7.63;;;4.13;;
66559;SDS011;53413;49.878;8.142;2023-04-26T07:38:02;6.87;;;3.33;;
66559;SDS011;53413;49.878;8.142;2023-04-26T07:40:28;7.60;;;3.85;;
66559;SDS011;53413;49.878;8.142;2023-04-26T07:42:54;7.20;;;3.27;;
66559;SDS011;53413;49.878;8.142;2023-04-26T07:45:19;8.85;;;3.60;;
66559;SDS011;53413;49.878;8.142;2023-04-26T07:47:45;7.43;;;3.47;;
66559;SDS011;53413;49.878;8.142;2023-04-26T07:50:11;6.68;;;3.10;;
66559;SDS011;53413;49.878;8.142;2023-04-26T07:52:37;8.18;;;3.60;;
66559;SDS011;53413;49.878;8.142;2023-04-26T07:55:03;7.37;;;3.70;;
66559;SDS011;53413;49.878;8.142;2023-04-26T07:57:28;6.82;;;3.28;;
66559;SDS011;53413;49.878;8.142;2023-04-26T07:59:54;7.07;;;3.40;;
66559;SDS011;53413;49.878;8.142;2023-04-26T08:02:19;6.97;;;3.47;;
66559;SDS011;53413;49.878;8.142;2023-04-26T08:04:48;6.37;;;3.10;;
66559;SDS011;53413;49.878;8.142;2023-04-26T08:07:16;6.82;;;3.15;;
66559;SDS011;53413;49.878;8.142;2023-04-26T08:09:42;7.13;;;3.65;;
66559;SDS011;53413;49.878;8.142;2023-04-26T08:12:07;7.93;;;3.53;;
66559;SDS011;53413;49.878;8.142;2023-04-26T08:14:33;6.63;;;3.27;;
66559;SDS011;53413;49.878;8.142;2023-04-26T08:16:59;7.68;;;3.33;;
66559;SDS011;53413;49.878;8.142;2023-04-26T08:19:25;5.03;;;3.03;;
66559;SDS011;53413;49.878;8.142;2023-04-26T08:21:54;5.55;;;3.40;;
66559;SDS011;53413;49.878;8.142;2023-04-26T08:24:20;6.30;;;2.90;;
66559;SDS011;53413;49.878;8.142;2023-04-26T08:26:45;6.75;;;3.25;;
66559;SDS011;53413;49.878;8.142;2023-04-26T08:29:11;7.00;;;2.97;;
66559;SDS011;53413;49.878;8.142;2023-04-26T08:31:36;5.77;;;2.87;;
66559;SDS011;53413;49.878;8.142;2023-04-26T08:34:01;8.17;;;3.17;;
66559;SDS011;53413;49.878;8.142;2023-04-26T08:36:27;7.33;;;3.53;;
66559;SDS011;53413;49.878;8.142;2023-04-26T08:38:52;7.57;;;3.70;;
66559;SDS011;53413;49.878;8.142;2023-04-26T08:41:20;7.93;;;3.92;;
66559;SDS011;53413;49.878;8.142;2023-04-26T08:43:47;6.50;;;3.40;;
66559;SDS011;53413;49.878;8.142;2023-04-26T08:46:14;7.13;;;3.30;;
66559;SDS011;53413;49.878;8.142;2023-04-26T08:48:42;8.10;;;3.40;;
66559;SDS011;53413;49.878;8.142;2023-04-26T08:51:07;7.53;;;3.65;;
66559;SDS011;53413;49.878;8.142;2023-04-26T08:53:37;8.13;;;3.67;;
66559;SDS011;53413;49.878;8.142;2023-04-26T08:56:03;8.45;;;3.80;;
66559;SDS011;53413;49.878;8.142;2023-04-26T08:58:30;7.15;;;3.80;;
66559;SDS011;53413;49.878;8.142;2023-04-26T09:00:56;6.88;;;3.28;;
66559;SDS011;53413;49.878;8.142;2023-04-26T09:03:24;7.35;;;3.55;;
66559;SDS011;53413;49.878;8.142;2023-04-26T09:05:50;8.30;;;3.60;;
66559;SDS011;53413;49.878;8.142;2023-04-26T09:08:17;8.25;;;3.35;;
66559;SDS011;53413;49.878;8.142;2023-04-26T09:10:43;8.57;;;3.40;;
66559;SDS011;53413;49.878;8.142;2023-04-26T09:13:09;8.25;;;3.40;;
66559;SDS011;53413;49.878;8.142;2023-04-26T09:15:35;7.28;;;3.50;;
66559;SDS011;53413;49.878;8.142;2023-04-26T09:20:42;8.90;;;3.70;;
66559;SDS011;53413;49.878;8.142;2023-04-26T09:23:08;7.75;;;3.70;;
66559;SDS011;53413;49.878;8.142;2023-04-26T09:25:34;7.10;;;3.70;;
66559;SDS011;53413;49.878;8.142;2023-04-26T09:28:00;7.05;;;3.00;;
66559;SDS011;53413;49.878;8.142;2023-04-26T09:30:27;7.00;;;2.97;;
66559;SDS011;53413;49.878;8.142;2023-04-26T09:32:57;6.15;;;3.15;;
66559;SDS011;53413;49.878;8.142;2023-04-26T09:40:28;9.75;;;3.85;;
66559;SDS011;53413;49.878;8.142;2023-04-26T09:42:55;7.70;;;3.25;;
66559;SDS011;53413;49.878;8.142;2023-04-26T09:45:25;7.70;;;3.33;;
66559;SDS011;53413;49.878;8.142;2023-04-26T09:47:51;6.70;;;3.20;;
66559;SDS011;53413;49.878;8.142;2023-04-26T09:50:29;8.87;;;3.20;;
66559;SDS011;53413;49.878;8.142;2023-04-26T09:52:55;8.38;;;3.10;;
66559;SDS011;53413;49.878;8.142;2023-04-26T09:55:25;8.55;;;3.30;;
66559;SDS011;53413;49.878;8.142;2023-04-26T09:57:52;7.95;;;3.25;;
66559;SDS011;53413;49.878;8.142;2023-04-26T10:00:18;8.17;;;3.20;;
66559;SDS011;53413;49.878;8.142;2023-04-26T10:02:45;6.30;;;3.00;;
66559;SDS011;53413;49.878;8.142;2023-04-26T10:05:11;7.50;;;3.05;;
66559;SDS011;53413;49.878;8.142;2023-04-26T10:07:36;6.30;;;3.10;;
66559;SDS011;53413;49.878;8.142;2023-04-26T10:10:03;9.73;;;3.13;;
66559;SDS011;53413;49.878;8.142;2023-04-26T10:12:29;7.50;;;3.03;;
66559;SDS011;53413;49.878;8.142;2023-04-26T10:14:54;7.20;;;3.20;;
66559;SDS011;53413;49.878;8.142;2023-04-26T10:17:21;6.63;;;3.17;;
66559;SDS011;53413;49.878;8.142;2023-04-26T10:19:47;8.30;;;3.30;;
66559;SDS011;53413;49.878;8.142;2023-04-26T10:22:19;6.90;;;3.20;;
66559;SDS011;53413;49.878;8.142;2023-04-26T10:24:47;9.65;;;3.25;;
66559;SDS011;53413;49.878;8.142;2023-04-26T10:27:14;8.52;;;3.30;;
66559;SDS011;53413;49.878;8.142;2023-04-26T10:32:17;7.77;;;3.10;;
66559;SDS011;53413;49.878;8.142;2023-04-26T10:34:44;8.18;;;2.78;;
66559;SDS011;53413;49.878;8.142;2023-04-26T10:37:29;7.57;;;3.10;;
66559;SDS011;53413;49.878;8.142;2023-04-26T10:39:55;8.13;;;3.27;;
66559;SDS011;53413;49.878;8.142;2023-04-26T10:45:42;9.65;;;3.22;;
66559;SDS011;53413;49.878;8.142;2023-04-26T10:53:23;7.00;;;3.30;;
66559;SDS011;53413;49.878;8.142;2023-04-26T10:55:48;8.87;;;3.20;;
66559;SDS011;53413;49.878;8.142;2023-04-26T10:58:27;7.10;;;2.97;;
66559;SDS011;53413;49.878;8.142;2023-04-26T11:01:17;6.80;;;3.10;;
66559;SDS011;53413;49.878;8.142;2023-04-26T11:04:05;7.80;;;3.13;;
66559;SDS011;53413;49.878;8.142;2023-04-26T11:09:33;6.65;;;3.08;;
66559;SDS011;53413;49.878;8.142;2023-04-26T11:12:04;6.67;;;3.10;;
66559;SDS011;53413;49.878;8.142;2023-04-26T11:14:34;8.00;;;3.17;;
66559;SDS011;53413;49.878;8.142;2023-04-26T11:17:03;7.70;;;3.00;;
66559;SDS011;53413;49.878;8.142;2023-04-26T11:19:29;8.38;;;3.30;;
66559;SDS011;53413;49.878;8.142;2023-04-26T11:21:55;8.02;;;3.28;;
66559;SDS011;53413;49.878;8.142;2023-04-26T11:24:31;6.60;;;2.90;;
66559;SDS011;53413;49.878;8.142;2023-04-26T11:26:58;6.90;;;3.00;;
66559;SDS011;53413;49.878;8.142;2023-04-26T11:29:23;7.80;;;3.30;;
66559;SDS011;53413;49.878;8.142;2023-04-26T11:31:52;7.32;;;3.13;;
66559;SDS011;53413;49.878;8.142;2023-04-26T11:34:22;6.67;;;2.90;;
66559;SDS011;53413;49.878;8.142;2023-04-26T11:37:00;7.65;;;3.03;;
66559;SDS011;53413;49.878;8.142;2023-04-26T11:39:31;7.47;;;3.42;;
66559;SDS011;53413;49.878;8.142;2023-04-26T11:42:03;8.48;;;3.30;;
66559;SDS011;53413;49.878;8.142;2023-04-26T11:44:35;6.95;;;3.20;;
66559;SDS011;53413;49.878;8.142;2023-04-26T11:47:02;7.40;;;3.27;;
66559;SDS011;53413;49.878;8.142;2023-04-26T11:49:31;7.72;;;3.50;;
66559;SDS011;53413;49.878;8.142;2023-04-26T11:51:58;7.90;;;3.03;;
66559;SDS011;53413;49.878;8.142;2023-04-26T11:54:33;8.38;;;3.40;;
66559;SDS011;53413;49.878;8.142;2023-04-26T11:57:00;8.90;;;3.20;;
66559;SDS011;53413;49.878;8.142;2023-04-26T11:59:36;8.80;;;3.17;;
66559;SDS011;53413;49.878;8.142;2023-04-26T12:02:04;7.45;;;3.10;;
66559;SDS011;53413;49.878;8.142;2023-04-26T12:04:31;7.82;;;3.40;;
66559;SDS011;53413;49.878;8.142;2023-04-26T12:06:56;7.10;;;3.40;;
66559;SDS011;53413;49.878;8.142;2023-04-26T12:09:26;8.70;;;3.25;;
66559;SDS011;53413;49.878;8.142;2023-04-26T12:11:56;8.07;;;3.47;;
66559;SDS011;53413;49.878;8.142;2023-04-26T12:14:35;8.18;;;3.40;;
66559;SDS011;53413;49.878;8.142;2023-04-26T12:17:02;8.63;;;3.10;;
66559;SDS011;53413;49.878;8.142;2023-04-26T12:19:33;7.65;;;3.00;;
66559;SDS011;53413;49.878;8.142;2023-04-26T12:21:59;7.72;;;3.00;;
66559;SDS011;53413;49.878;8.142;2023-04-26T12:24:25;6.17;;;3.00;;
66559;SDS011;53413;49.878;8.142;2023-04-26T12:26:58;7.18;;;3.30;;
66559;SDS011;53413;49.878;8.142;2023-04-26T12:29:24;7.28;;;3.20;;
66559;SDS011;53413;49.878;8.142;2023-04-26T12:31:50;7.50;;;3.07;;
66559;SDS011;53413;49.878;8.142;2023-04-26T12:34:15;7.87;;;3.00;;
66559;SDS011;53413;49.878;8.142;2023-04-26T12:36:41;6.63;;;3.05;;
66559;SDS011;53413;49.878;8.142;2023-04-26T12:39:12;6.70;;;3.10;;
66559;SDS011;53413;49.878;8.142;2023-04-26T12:41:42;7.18;;;2.83;;
66559;SDS011;53413;49.878;8.142;2023-04-26T12:44:09;8.63;;;3.10;;
66559;SDS011;53413;49.878;8.142;2023-04-26T12:46:36;6.50;;;2.90;;
66559;SDS011;53413;49.878;8.142;2023-04-26T12:49:01;6.50;;;3.00;;
66559;SDS011;53413;49.878;8.142;2023-04-26T12:51:27;7.97;;;3.28;;
66559;SDS011;53413;49.878;8.142;2023-04-26T12:53:53;6.75;;;2.83;;
66559;SDS011;53413;49.878;8.142;2023-04-26T12:56:19;6.67;;;2.70;;
66559;SDS011;53413;49.878;8.142;2023-04-26T12:58:44;7.53;;;3.00;;
66559;SDS011;53413;49.878;8.142;2023-04-26T13:01:10;6.63;;;2.90;;
66559;SDS011;53413;49.878;8.142;2023-04-26T13:03:38;6.53;;;2.50;;
66559;SDS011;53413;49.878;8.142;2023-04-26T13:06:03;6.95;;;2.83;;
66559;SDS011;53413;49.878;8.142;2023-04-26T13:08:29;7.38;;;3.00;;
66559;SDS011;53413;49.878;8.142;2023-04-26T13:10:54;7.35;;;3.00;;
66559;SDS011;53413;49.878;8.142;2023-04-26T13:13:20;7.00;;;2.83;;
66559;SDS011;53413;49.878;8.142;2023-04-26T13:15:46;6.63;;;2.90;;
66559;SDS011;53413;49.878;8.142;2023-04-26T13:18:11;6.60;;;2.63;;
66559;SDS011;53413;49.878;8.142;2023-04-26T13:20:39;7.88;;;2.95;;
66559;SDS011;53413;49.878;8.142;2023-04-26T13:23:05;7.65;;;2.88;;
66559;SDS011;53413;49.878;8.142;2023-04-26T13:25:30;9.27;;;2.90;;
66559;SDS011;53413;49.878;8.142;2023-04-26T13:27:56;7.03;;;2.80;;
66559;SDS011;53413;49.878;8.142;2023-04-26T13:30:21;7.20;;;2.60;;
66559;SDS011;53413;49.878;8.142;2023-04-26T13:32:46;8.00;;;2.63;;
66559;SDS011;53413;49.878;8.142;2023-04-26T13:35:12;5.88;;;2.53;;
66559;SDS011;53413;49.878;8.142;2023-04-26T13:37:41;6.05;;;2.80;;
66559;SDS011;53413;49.878;8.142;2023-04-26T13:40:07;6.55;;;2.60;;
66559;SDS011;53413;49.878;8.142;2023-04-26T13:42:38;7.70;;;2.72;;
66559;SDS011;53413;49.878;8.142;2023-04-26T13:45:13;6.73;;;2.63;;
66559;SDS011;53413;49.878;8.142;2023-04-26T13:47:41;5.78;;;2.67;;
66559;SDS011;53413;49.878;8.142;2023-04-26T13:50:13;6.50;;;2.87;;
66559;SDS011;53413;49.878;8.142;2023-04-26T13:52:47;7.07;;;2.83;;
66559;SDS011;53413;49.878;8.142;2023-04-26T13:55:14;6.53;;;2.60;;
66559;SDS011;53413;49.878;8.142;2023-04-26T13:57:40;6.93;;;2.60;;
66559;SDS011;53413;49.878;8.142;2023-04-26T14:00:15;6.10;;;2.83;;
66559;SDS011;53413;49.878;8.142;2023-04-26T14:02:41;6.53;;;2.60;;
66559;SDS011;53413;49.878;8.142;2023-04-26T14:05:09;7.00;;;2.60;;
66559;SDS011;53413;49.878;8.142;2023-04-26T14:07:34;9.43;;;2.50;;
66559;SDS011;53413;49.878;8.142;2023-04-26T14:10:00;6.60;;;2.37;;
66559;SDS011;53413;49.878;8.142;2023-04-26T14:12:28;6.40;;;2.63;;
66559;SDS011;53413;49.878;8.142;2023-04-26T14:15:02;5.35;;;2.55;;
66559;SDS011;53413;49.878;8.142;2023-04-26T14:18:08;6.53;;;2.60;;
66559;SDS011;53413;49.878;8.142;2023-04-26T14:21:00;5.30;;;2.38;;
66559;SDS011;53413;49.878;8.142;2023-04-26T14:23:36;6.20;;;2.63;;
66559;SDS011;53413;49.878;8.142;2023-04-26T14:33:00;6.70;;;2.63;;
66559;SDS011;53413;49.878;8.142;2023-04-26T14:35:26;6.33;;;2.70;;
66559;SDS011;53413;49.878;8.142;2023-04-26T14:37:51;7.77;;;2.80;;
66559;SDS011;53413;49.878;8.142;2023-04-26T14:40:17;5.60;;;2.30;;
66559;SDS011;53413;49.878;8.142;2023-04-26T14:42:42;5.82;;;2.60;;
66559;SDS011;53413;49.878;8.142;2023-04-26T14:45:10;6.97;;;2.80;;
66559;SDS011;53413;49.878;8.142;2023-04-26T14:47:36;5.55;;;2.42;;
66559;SDS011;53413;49.878;8.142;2023-04-26T14:50:01;6.47;;;2.53;;
66559;SDS011;53413;49.878;8.142;2023-04-26T14:52:27;7.35;;;2.83;;
66559;SDS011;53413;49.878;8.142;2023-04-26T14:54:53;5.83;;;2.33;;
66559;SDS011;53413;49.878;8.142;2023-04-26T14:57:18;7.43;;;2.45;;
66559;SDS011;53413;49.878;8.142;2023-04-26T14:59:43;7.13;;;2.55;;
66559;SDS011;53413;49.878;8.142;2023-04-26T15:02:09;5.97;;;2.40;;
66559;SDS011;53413;49.878;8.142;2023-04-26T15:04:34;9.33;;;2.67;;
66559;SDS011;53413;49.878;8.142;2023-04-26T15:07:01;6.78;;;2.65;;
66559;SDS011;53413;49.878;8.142;2023-04-26T15:09:27;6.47;;;2.50;;